Time;durP1;ratioP1;P1;durP2;ratioP2;P2;SDS_P1;SDS_P2;PMS_P1;PMS_P2;Temp;Humidity;BMP_temperature;BMP_pressure;BME280_temperature;BME280_humidity;BME280_pressure;Samples;Min_cycle;Max_cycle;Signal;HPM_P1;HPM_P2
2023/11/13 00:03:39;;;;;;;24.30;13.00;;;;;;;7.53;65.29;98542.66;234269;212;149428;-60
2023/11/13 00:08:43;;;;;;;20.00;12.90;;;;;;;7.55;65.33;98545.01;234218;215;139894;-60
2023/11/13 00:13:46;;;;;;;20.80;14.10;;;;;;;7.55;65.33;98544.82;234218;214;137021;-63
2023/11/13 00:18:50;;;;;;;22.20;12.90;;;;;;;7.55;65.29;98552.58;234067;208;150127;-61
2023/11/13 00:23:53;;;;;;;20.80;12.50;;;;;;;7.60;65.44;98552.31;234220;213;139292;-61
2023/11/13 00:28:57;;;;;;;21.40;13.60;;;;;;;7.70;65.39;98551.23;233862;209;138114;-60
2023/11/13 00:34:01;;;;;;;22.30;14.50;;;;;;;7.77;65.23;98552.88;234060;215;150857;-60
2023/11/13 00:39:10;;;;;;;21.80;14.30;;;;;;;7.82;65.02;98557.40;233991;213;138833;-60
2023/11/13 00:44:13;;;;;;;27.30;15.10;;;;;;;7.85;64.88;98556.16;234242;209;138097;-60
2023/11/13 00:49:17;;;;;;;26.60;15.20;;;;;;;7.90;64.81;98558.73;234106;213;149534;-59
2023/11/13 00:54:21;;;;;;;24.40;15.20;;;;;;;7.90;64.62;98559.77;234190;213;139347;-58
2023/11/13 00:59:24;;;;;;;24.40;14.70;;;;;;;7.91;64.63;98566.09;234255;208;138307;-57
2023/11/13 01:04:29;;;;;;;24.00;14.30;;;;;;;7.94;64.54;98571.02;234171;216;149808;-57
2023/11/13 01:09:32;;;;;;;21.50;13.80;;;;;;;7.94;64.54;98574.55;234148;213;139418;-58
2023/11/13 01:14:35;;;;;;;22.70;15.10;;;;;;;7.92;64.56;98582.09;234250;214;137648;-60
2023/11/13 01:19:39;;;;;;;21.50;14.20;;;;;;;7.90;64.65;98581.52;234190;215;150093;-59
2023/11/13 01:24:43;;;;;;;21.50;13.40;;;;;;;7.91;64.78;98581.63;234270;215;139294;-59
2023/11/13 01:29:46;;;;;;;22.40;13.70;;;;;;;7.92;64.62;98583.48;234217;216;139247;-59
2023/11/13 01:34:49;;;;;;;18.60;11.40;;;;;;;7.95;64.39;98584.57;234329;215;151167;-58
2023/11/13 01:39:53;;;;;;;20.30;11.90;;;;;;;7.95;64.22;98585.80;234272;216;139506;-61
2023/11/13 01:44:58;;;;;;;18.10;11.70;;;;;;;7.96;64.08;98587.66;234164;215;138186;-59
2023/11/13 01:50:04;;;;;;;18.70;12.00;;;;;;;7.95;64.11;98583.46;234292;213;151496;-59
2023/11/13 01:55:09;;;;;;;17.80;12.10;;;;;;;7.94;64.16;98584.23;234328;215;140990;-59
2023/11/13 02:00:15;;;;;;;19.40;12.70;;;;;;;7.91;64.61;98586.40;233892;213;138239;-59
2023/11/13 02:05:20;;;;;;;23.50;13.10;;;;;;;7.89;64.60;98578.88;234390;215;150395;-61
2023/11/13 02:10:26;;;;;;;20.30;12.50;;;;;;;7.88;64.55;98578.98;234064;216;140020;-61
2023/11/13 02:15:31;;;;;;;19.80;12.90;;;;;;;7.88;64.69;98573.15;234316;215;138367;-61
2023/11/13 02:20:34;;;;;;;21.10;12.30;;;;;;;7.87;64.62;98575.80;234229;213;148601;-60
2023/11/13 02:25:38;;;;;;;20.60;12.00;;;;;;;7.89;64.80;98576.63;234165;216;139612;-60
2023/11/13 02:30:42;;;;;;;17.60;12.00;;;;;;;7.92;64.62;98574.48;234305;215;138871;-60
2023/11/13 02:35:46;;;;;;;19.10;11.70;;;;;;;7.93;64.45;98569.13;234250;215;150316;-59
2023/11/13 02:40:49;;;;;;;18.50;11.20;;;;;;;7.94;64.61;98570.10;234321;215;139846;-60
2023/11/13 02:45:53;;;;;;;18.50;10.90;;;;;;;7.94;64.42;98574.38;234250;214;137840;-60
2023/11/13 02:50:57;;;;;;;18.20;10.80;;;;;;;7.95;64.31;98580.81;234004;214;151993;-60
2023/11/13 02:56:01;;;;;;;15.20;10.30;;;;;;;7.95;64.17;98581.39;234225;212;139345;-60
2023/11/13 03:01:04;;;;;;;18.60;11.20;;;;;;;7.93;64.40;98589.64;234179;216;138219;-60
2023/11/13 03:06:08;;;;;;;18.40;11.10;;;;;;;7.92;64.39;98592.86;234232;216;151157;-60
2023/11/13 03:11:14;;;;;;;19.10;11.50;;;;;;;7.95;64.29;98594.26;234388;214;138964;-59
2023/11/13 03:16:18;;;;;;;15.70;9.60;;;;;;;7.97;64.25;98595.55;234246;213;138141;-59
2023/11/13 03:21:23;;;;;;;19.10;11.60;;;;;;;7.96;64.33;98591.22;234017;216;149397;-57
2023/11/13 03:26:28;;;;;;;19.10;12.10;;;;;;;7.93;64.57;98586.61;234165;215;138911;-59
2023/11/13 03:31:32;;;;;;;23.10;12.80;;;;;;;7.96;64.69;98584.64;234140;215;139267;-59
2023/11/13 03:36:35;;;;;;;19.90;12.40;;;;;;;7.97;64.67;98588.11;234205;209;150679;-58
2023/11/13 03:41:38;;;;;;;18.90;11.90;;;;;;;7.94;64.85;98580.89;234226;214;140151;-61
2023/11/13 03:46:41;;;;;;;20.80;11.70;;;;;;;7.97;64.77;98582.27;234300;213;139455;-60
2023/11/13 03:51:44;;;;;;;18.40;11.90;;;;;;;8.06;64.65;98580.37;234252;213;149803;-60
2023/11/13 03:56:48;;;;;;;18.60;11.60;;;;;;;8.16;64.23;98577.67;234253;215;140197;-60
2023/11/13 04:01:51;;;;;;;17.80;11.70;;;;;;;8.21;64.26;98578.77;234177;214;138282;-60
2023/11/13 04:06:55;;;;;;;18.90;12.90;;;;;;;8.21;64.18;98583.85;234226;216;149709;-60
2023/11/13 04:11:58;;;;;;;18.90;11.90;;;;;;;8.19;64.33;98583.11;234304;215;139100;-68
2023/11/13 04:17:02;;;;;;;19.70;11.80;;;;;;;8.14;64.19;98580.38;234398;215;138174;-60
2023/11/13 04:22:06;;;;;;;17.90;11.50;;;;;;;8.03;64.28;98591.98;234112;215;149334;-60
2023/11/13 04:27:09;;;;;;;16.90;10.50;;;;;;;8.00;64.39;98591.67;234216;215;140680;-61
2023/11/13 04:32:12;;;;;;;14.50;10.20;;;;;;;8.01;64.36;98584.91;234270;213;138470;-61
2023/11/13 04:37:17;;;;;;;17.50;9.90;;;;;;;8.02;64.17;98578.15;234283;216;149927;-60
2023/11/13 04:42:20;;;;;;;16.60;10.00;;;;;;;8.02;64.27;98570.91;234294;216;139403;-61
2023/11/13 04:47:23;;;;;;;16.90;10.90;;;;;;;8.01;64.16;98570.76;234461;215;140812;-61
2023/11/13 04:52:26;;;;;;;19.90;11.60;;;;;;;8.02;64.13;98569.14;234332;216;150018;-60
2023/11/13 04:57:29;;;;;;;15.70;10.10;;;;;;;8.01;64.12;98573.08;234213;216;139131;-59
2023/11/13 05:02:37;;;;;;;15.00;10.20;;;;;;;8.00;63.97;98572.42;234285;216;139402;-61
2023/11/13 05:07:41;;;;;;;15.10;9.40;;;;;;;7.99;63.86;98581.67;234263;216;149258;-59
2023/11/13 05:12:44;;;;;;;18.90;13.60;;;;;;;7.98;63.70;98583.14;234261;215;138711;-60
2023/11/13 05:17:47;;;;;;;38.60;26.40;;;;;;;8.05;64.97;98582.72;234312;214;137856;-62
2023/11/13 05:22:51;;;;;;;50.30;39.60;;;;;;;8.11;64.05;98596.13;234190;216;149518;-59
2023/11/13 05:27:54;;;;;;;126.40;88.30;;;;;;;8.17;63.65;98606.36;234218;216;138693;-60
2023/11/13 05:32:57;;;;;;;19.00;10.40;;;;;;;8.26;63.44;98610.80;234304;216;138890;-59
2023/11/13 05:38:01;;;;;;;16.20;8.90;;;;;;;8.24;63.40;98614.24;234199;214;151125;-59
2023/11/13 05:43:04;;;;;;;15.40;9.40;;;;;;;8.15;63.22;98607.22;234222;215;138856;-59
2023/11/13 05:48:07;;;;;;;17.10;9.60;;;;;;;8.07;63.41;98607.88;234337;215;137123;-60
2023/11/13 05:53:11;;;;;;;67.10;50.60;;;;;;;8.02;63.88;98612.55;234217;214;150443;-60
2023/11/13 05:58:14;;;;;;;21.40;12.50;;;;;;;8.07;64.61;98619.36;234167;214;140419;-59
2023/11/13 06:03:17;;;;;;;23.70;10.80;;;;;;;8.05;64.05;98618.27;234323;216;137945;-57
2023/11/13 06:08:21;;;;;;;14.40;8.80;;;;;;;7.96;64.18;98621.44;234282;216;149811;-58
2023/11/13 06:13:26;;;;;;;125.60;93.50;;;;;;;7.93;64.19;98624.05;234172;216;138760;-60
2023/11/13 06:18:29;;;;;;;17.30;10.20;;;;;;;8.02;64.38;98632.89;234277;213;138071;-60
2023/11/13 06:23:32;;;;;;;16.20;7.80;;;;;;;8.03;63.82;98638.64;234356;215;151235;-60
2023/11/13 06:28:35;;;;;;;13.60;6.70;;;;;;;7.99;63.80;98649.52;234231;212;140958;-60
2023/11/13 06:33:39;;;;;;;8.70;5.70;;;;;;;8.00;63.75;98645.38;234163;213;261561;-60
2023/11/13 06:38:42;;;;;;;13.10;6.40;;;;;;;8.02;63.45;98638.70;234234;213;149525;-58
2023/11/13 06:43:45;;;;;;;12.00;7.10;;;;;;;8.09;63.56;98641.66;234239;214;140651;-59
2023/11/13 06:48:49;;;;;;;10.70;5.50;;;;;;;8.19;63.05;98637.55;234268;215;138061;-60
2023/11/13 06:53:52;;;;;;;9.10;4.90;;;;;;;8.22;62.75;98638.45;234174;214;149135;-58
2023/11/13 06:58:55;;;;;;;7.90;4.30;;;;;;;8.24;62.32;98645.91;234322;216;139614;-59
2023/11/13 07:03:59;;;;;;;9.30;3.80;;;;;;;8.29;62.06;98647.56;234322;216;137292;-59
2023/11/13 07:09:13;;;;;;;10.90;3.80;;;;;;;8.34;61.75;98644.63;234268;215;149806;-60
2023/11/13 07:14:16;;;;;;;9.50;3.50;;;;;;;8.38;61.59;98647.77;234239;216;138860;-59
2023/11/13 07:19:20;;;;;;;7.50;3.30;;;;;;;8.44;61.39;98636.13;234211;214;137316;-59
2023/11/13 07:24:23;;;;;;;7.80;3.90;;;;;;;8.48;61.27;98636.71;234295;215;149785;-60
2023/11/13 07:29:26;;;;;;;8.20;2.90;;;;;;;8.55;61.25;98641.98;234376;214;139508;-58
2023/11/13 07:34:31;;;;;;;9.10;3.40;;;;;;;8.63;60.87;98648.59;234155;214;137004;-58
2023/11/13 07:39:34;;;;;;;10.30;3.40;;;;;;;8.69;60.47;98649.80;234230;213;149183;-58
2023/11/13 07:44:39;;;;;;;11.80;6.20;;;;;;;8.69;60.82;98665.35;234280;215;139269;-58
2023/11/13 07:49:43;;;;;;;11.00;6.10;;;;;;;8.71;61.16;98665.75;234234;214;138074;-58
2023/11/13 07:54:47;;;;;;;11.10;7.60;;;;;;;8.70;61.48;98673.42;234305;214;150687;-58
2023/11/13 07:59:51;;;;;;;13.50;6.20;;;;;;;8.78;61.27;98682.00;234229;214;139467;-59
2023/11/13 08:04:55;;;;;;;9.20;5.00;;;;;;;8.73;60.94;98687.20;234432;213;137861;-57
2023/11/13 08:10:01;;;;;;;119.50;87.60;;;;;;;8.73;60.73;98693.58;234302;213;151510;-57
2023/11/13 08:15:05;;;;;;;13.50;8.60;;;;;;;8.96;62.60;98704.08;234215;215;140225;-59
2023/11/13 08:20:14;;;;;;;10.20;6.20;;;;;;;9.09;60.73;98705.73;234225;208;137920;-57
2023/11/13 08:25:19;;;;;;;12.80;5.80;;;;;;;9.04;60.12;98703.59;234259;213;149326;-59
2023/11/13 08:30:22;;;;;;;14.20;6.90;;;;;;;9.01;60.03;98694.90;234233;215;139804;-58
2023/11/13 08:35:26;;;;;;;15.30;7.80;;;;;;;8.97;59.84;98694.29;234343;212;136749;-59
2023/11/13 08:40:30;;;;;;;10.70;6.80;;;;;;;8.99;60.13;98690.06;234247;215;149628;-59
2023/11/13 08:45:35;;;;;;;15.30;7.80;;;;;;;9.01;60.16;98687.50;234168;213;139184;-59
2023/11/13 08:50:53;;;;;;;11.60;7.90;;;;;;;9.01;60.24;98690.99;234273;213;137488;-57
2023/11/13 08:55:57;;;;;;;16.40;8.00;;;;;;;8.99;60.33;98683.54;234320;216;149563;-59
2023/11/13 09:01:00;;;;;;;489.00;346.10;;;;;;;9.07;61.03;98680.23;234200;214;140430;-60
2023/11/13 09:06:08;;;;;;;22.90;14.20;;;;;;;9.25;62.53;98682.77;234260;213;137906;-57
2023/11/13 09:11:17;;;;;;;16.00;8.80;;;;;;;9.32;60.59;98680.42;234282;216;149464;-58
2023/11/13 09:16:21;;;;;;;11.80;6.90;;;;;;;9.36;60.07;98674.66;234265;213;138423;-58
2023/11/13 09:21:24;;;;;;;19.10;12.00;;;;;;;9.38;59.61;98668.56;234201;214;137487;-59
2023/11/13 09:26:28;;;;;;;10.70;6.40;;;;;;;9.36;59.45;98663.14;234231;213;149233;-59
2023/11/13 09:31:31;;;;;;;33.20;24.20;;;;;;;9.42;60.07;98655.35;234027;214;141709;-59
2023/11/13 09:36:34;;;;;;;13.10;8.00;;;;;;;9.57;60.36;98651.55;234158;213;137994;-59
2023/11/13 09:41:48;;;;;;;10.70;5.40;;;;;;;9.67;59.29;98653.36;234297;213;149277;-58
2023/11/13 09:46:52;;;;;;;8.10;4.30;;;;;;;9.77;58.69;98648.54;234338;208;139006;-56
2023/11/13 09:51:59;;;;;;;6.20;4.30;;;;;;;9.82;58.23;98645.90;234249;213;137723;-58
2023/11/13 09:57:03;;;;;;;74.60;58.40;;;;;;;9.83;57.63;98643.53;232939;214;149128;-54
2023/11/13 10:02:10;;;;;;;10.10;6.70;;;;;;;9.88;58.18;98640.49;233994;209;269936;-57
2023/11/13 10:07:18;;;;;;;9.60;5.10;;;;;;;9.97;57.51;98635.34;234188;213;138660;-59
2023/11/13 10:12:21;;;;;;;8.30;4.70;;;;;;;10.01;57.82;98629.04;234291;213;150608;-58
2023/11/13 10:17:24;;;;;;;104.90;68.70;;;;;;;10.07;58.40;98626.85;233670;213;138925;-59
2023/11/13 10:22:28;;;;;;;10.70;6.50;;;;;;;10.24;58.06;98618.48;234117;208;137620;-58
2023/11/13 10:27:32;;;;;;;79.80;53.40;;;;;;;10.24;57.52;98618.11;233094;214;149425;-60
2023/11/13 10:32:36;;;;;;;8.70;5.50;;;;;;;10.29;57.54;98620.45;233579;216;139583;-59
2023/11/13 10:37:56;;;;;;;8.70;4.80;;;;;;;10.30;56.99;98618.28;234254;213;138059;-58
2023/11/13 10:43:04;;;;;;;6.50;3.40;;;;;;;10.29;56.74;98613.50;234254;216;149912;-59
2023/11/13 10:48:08;;;;;;;8.10;4.80;;;;;;;10.31;56.63;98610.00;234212;215;140292;-58
2023/11/13 10:53:16;;;;;;;7.90;4.10;;;;;;;10.36;56.51;98605.76;234339;216;138505;-58
2023/11/13 10:58:19;;;;;;;8.30;4.10;;;;;;;10.34;56.33;98609.09;234183;214;150604;-59
2023/11/13 11:03:27;;;;;;;9.10;4.30;;;;;;;10.35;56.19;98611.19;234124;216;139061;-59
2023/11/13 11:08:32;;;;;;;7.60;3.60;;;;;;;10.33;55.97;98610.40;234227;216;138644;-60
2023/11/13 11:13:39;;;;;;;6.30;3.60;;;;;;;10.38;55.91;98603.48;234090;215;150281;-59
2023/11/13 11:18:56;;;;;;;5.60;3.80;;;;;;;10.41;55.50;98599.92;234125;215;139800;-60
2023/11/13 11:24:07;;;;;;;9.30;3.40;;;;;;;10.41;55.22;98588.04;234245;214;140707;-61
2023/11/13 11:29:32;;;;;;;5.20;3.50;;;;;;;10.50;55.34;98586.88;234306;214;149940;-59
2023/11/13 11:34:39;;;;;;;8.70;3.60;;;;;;;10.50;54.69;98588.49;234236;213;140018;-59
2023/11/13 11:39:50;;;;;;;6.70;3.00;;;;;;;10.43;54.39;98586.34;234262;215;138278;-60
2023/11/13 11:44:53;;;;;;;7.40;3.30;;;;;;;10.35;53.95;98581.41;234182;216;150021;-59
2023/11/13 11:49:58;;;;;;;6.50;3.20;;;;;;;10.35;53.84;98572.34;234216;215;138901;-59
2023/11/13 11:55:03;;;;;;;;;;;;;;;10.33;53.85;98562.05;234208;215;138114;-60
2023/11/13 12:00:10;;;;;;;6.50;2.70;;;;;;;10.30;53.64;98563.67;234278;208;150694;-58
2023/11/13 12:05:14;;;;;;;6.70;3.30;;;;;;;10.28;53.43;98559.14;234324;213;139059;-61
2023/11/13 12:10:21;;;;;;;8.20;3.40;;;;;;;10.31;53.33;98560.91;234248;215;138187;-60
2023/11/13 12:15:26;;;;;;;6.50;2.80;;;;;;;10.34;53.01;98568.52;233972;213;149824;-60
2023/11/13 12:20:31;;;;;;;5.70;2.70;;;;;;;10.32;52.97;98565.60;234082;213;143698;-60
2023/11/13 12:25:34;;;;;;;4.60;2.40;;;;;;;10.43;52.64;98563.44;234036;214;138038;-60
2023/11/13 12:30:38;;;;;;;5.30;2.30;;;;;;;10.55;51.72;98556.63;234188;213;149769;-59
2023/11/13 12:35:42;;;;;;;5.40;2.00;;;;;;;10.60;50.67;98546.65;234175;213;138986;-59
2023/11/13 12:40:45;;;;;;;5.30;1.80;;;;;;;10.58;49.57;98549.14;234315;213;138643;-60
2023/11/13 12:45:49;;;;;;;7.70;2.10;;;;;;;10.49;49.58;98558.23;234154;213;149371;-58
2023/11/13 12:50:52;;;;;;;3.80;2.10;;;;;;;10.44;49.47;98556.50;234185;214;140835;-60
2023/11/13 12:55:57;;;;;;;4.90;2.30;;;;;;;10.38;48.84;98549.27;234211;208;138494;-60
2023/11/13 13:01:00;;;;;;;5.00;1.90;;;;;;;10.34;48.48;98541.91;234236;213;149446;-59
2023/11/13 13:06:08;;;;;;;5.10;2.50;;;;;;;10.27;48.11;98541.71;234157;208;140287;-60
2023/11/13 13:11:14;;;;;;;3.60;2.00;;;;;;;10.20;48.06;98528.12;234364;209;137477;-60
2023/11/13 13:16:18;;;;;;;4.60;2.00;;;;;;;10.23;47.73;98527.42;234185;213;149370;-59
2023/11/13 13:21:22;;;;;;;6.80;2.00;;;;;;;10.17;47.92;98523.04;234170;213;139461;-60
2023/11/13 13:26:25;;;;;;;4.10;2.00;;;;;;;10.17;48.09;98521.76;234228;214;138753;-58
2023/11/13 13:31:30;;;;;;;5.60;2.20;;;;;;;10.13;47.67;98513.34;234197;213;150942;-59
2023/11/13 13:36:36;;;;;;;;;;;;;;;10.13;47.21;98511.75;234134;213;140019;-60
2023/11/13 13:41:42;;;;;;;7.90;1.50;;;;;;;10.11;47.17;98508.01;234203;213;134887;-59
2023/11/13 13:46:45;;;;;;;2.70;1.60;;;;;;;10.09;46.68;98506.02;234240;208;149055;-60
2023/11/13 13:51:49;;;;;;;3.40;1.60;;;;;;;10.09;46.36;98508.14;234083;208;140151;-60
2023/11/13 13:56:53;;;;;;;2.50;1.50;;;;;;;10.10;46.22;98505.10;234106;212;139682;-59
2023/11/13 14:01:57;;;;;;;3.90;1.80;;;;;;;10.13;46.19;98507.52;234075;212;150575;-59
2023/11/13 14:07:02;;;;;;;5.20;1.50;;;;;;;10.14;46.16;98504.96;234086;213;141688;-60
2023/11/13 14:12:06;;;;;;;3.30;1.50;;;;;;;10.14;46.40;98504.77;234107;213;137711;-59
2023/11/13 14:17:20;;;;;;;8.80;3.30;;;;;;;10.17;46.93;98507.39;234260;212;149585;-60
2023/11/13 14:22:25;;;;;;;5.50;1.90;;;;;;;10.21;47.28;98504.84;234081;213;140298;-60
2023/11/13 14:27:28;;;;;;;5.40;2.00;;;;;;;10.20;47.84;98509.50;234211;213;138347;-60
2023/11/13 14:32:31;;;;;;;6.80;2.80;;;;;;;10.13;46.82;98514.27;234161;209;151201;-61
2023/11/13 14:37:35;;;;;;;6.20;1.90;;;;;;;10.07;46.76;98513.94;234189;208;138963;-59
2023/11/13 14:42:39;;;;;;;4.90;1.90;;;;;;;10.03;47.10;98506.98;234201;212;138325;-61
2023/11/13 14:47:45;;;;;;;4.10;2.10;;;;;;;10.02;47.83;98493.20;234126;212;149405;-61
2023/11/13 14:52:52;;;;;;;8.40;2.20;;;;;;;10.00;48.33;98485.58;234260;212;140044;-59
2023/11/13 14:57:55;;;;;;;;;;;;;;;9.97;47.55;98485.92;234146;213;137761;-60
2023/11/13 15:02:58;;;;;;;10.50;2.70;;;;;;;9.94;47.52;98477.81;234292;212;149277;-59
2023/11/13 15:08:02;;;;;;;8.00;2.70;;;;;;;9.90;47.88;98477.57;234145;213;141248;-57
2023/11/13 15:13:07;;;;;;;6.70;2.20;;;;;;;9.87;49.63;98478.09;234163;213;137832;-57
2023/11/13 15:18:12;;;;;;;6.50;2.10;;;;;;;9.83;49.22;98484.20;234112;214;150194;-59
2023/11/13 15:23:16;;;;;;;6.50;2.40;;;;;;;9.78;47.60;98486.86;234319;213;139182;-59
2023/11/13 15:28:39;;;;;;;5.40;2.50;;;;;;;9.76;48.55;98476.17;234352;213;136963;-58
2023/11/13 15:33:43;;;;;;;6.60;2.70;;;;;;;9.71;49.65;98474.39;234205;212;149476;-58
2023/11/13 15:38:47;;;;;;;6.70;2.20;;;;;;;9.66;50.43;98471.54;234098;213;140293;-58
2023/11/13 15:43:50;;;;;;;6.00;2.80;;;;;;;9.59;51.57;98463.19;234152;213;137024;-60
2023/11/13 15:48:53;;;;;;;28.80;14.90;;;;;;;9.60;52.52;98447.18;234152;213;149775;-61
2023/11/13 15:53:57;;;;;;;10.40;3.50;;;;;;;9.62;52.56;98444.89;234152;208;139155;-58
2023/11/13 15:59:01;;;;;;;10.00;3.00;;;;;;;9.53;52.16;98442.54;234370;208;137439;-56
2023/11/13 16:04:05;;;;;;;10.10;3.20;;;;;;;9.41;52.01;98430.36;234138;208;149439;-59
2023/11/13 16:09:12;;;;;;;7.40;2.60;;;;;;;9.28;51.59;98432.84;234148;213;139613;-59
2023/11/13 16:14:15;;;;;;;10.80;3.00;;;;;;;9.13;52.23;98425.68;234179;214;138190;-57
2023/11/13 16:19:19;;;;;;;15.00;3.40;;;;;;;9.00;53.06;98416.83;234244;214;150410;-58
2023/11/13 16:24:22;;;;;;;51.70;6.10;;;;;;;8.88;53.66;98404.33;234106;213;140102;-58
2023/11/13 16:29:28;;;;;;;29.40;5.80;;;;;;;8.75;54.03;98404.64;234351;213;138501;-58
2023/11/13 16:34:32;;;;;;;174.80;99.90;;;;;;;8.65;54.59;98410.45;234162;213;149786;-60
2023/11/13 16:39:37;;;;;;;51.80;12.30;;;;;;;8.59;55.52;98405.70;234148;209;139352;-59
2023/11/13 16:44:40;;;;;;;39.20;7.80;;;;;;;8.46;55.20;98399.82;234130;213;138001;-58
2023/11/13 16:49:43;;;;;;;35.60;5.70;;;;;;;8.29;55.42;98395.34;234199;209;148570;-57
2023/11/13 16:54:47;;;;;;;45.30;6.50;;;;;;;8.22;55.68;98398.45;234130;213;139529;-59
2023/11/13 16:59:51;;;;;;;27.90;5.80;;;;;;;8.17;55.72;98407.81;234166;213;138548;-58
2023/11/13 17:04:55;;;;;;;28.50;5.40;;;;;;;8.07;55.73;98416.00;234279;213;150792;-59
2023/11/13 17:09:59;;;;;;;29.00;6.30;;;;;;;7.99;56.46;98413.16;234102;208;140156;-60
2023/11/13 17:15:03;;;;;;;36.00;6.10;;;;;;;7.93;57.03;98413.90;234215;214;138019;-59
2023/11/13 17:20:10;;;;;;;31.10;6.30;;;;;;;7.84;57.38;98418.85;234169;208;149232;-59
2023/11/13 17:25:13;;;;;;;24.10;5.40;;;;;;;7.76;57.54;98417.53;234054;209;140362;-60
2023/11/13 17:30:16;;;;;;;26.40;6.70;;;;;;;7.70;58.03;98409.26;234248;209;137435;-60
2023/11/13 17:35:20;;;;;;;24.30;6.90;;;;;;;7.58;58.11;98405.58;234266;213;149309;-59
2023/11/13 17:40:23;;;;;;;28.20;7.30;;;;;;;7.54;58.20;98399.61;234066;213;139969;-60
2023/11/13 17:45:27;;;;;;;22.20;7.30;;;;;;;7.48;58.56;98399.66;234137;213;139678;-60
2023/11/13 17:50:30;;;;;;;23.60;7.50;;;;;;;7.40;58.73;98391.45;233969;208;149936;-55
2023/11/13 17:55:33;;;;;;;21.30;7.70;;;;;;;7.37;59.16;98381.42;234233;209;139051;-60
2023/11/13 18:00:37;;;;;;;23.70;8.30;;;;;;;7.34;59.61;98362.31;234228;213;138053;-59
2023/11/13 18:05:40;;;;;;;33.20;8.90;;;;;;;7.29;59.92;98348.56;234110;212;149137;-59
2023/11/13 18:10:45;;;;;;;21.10;9.50;;;;;;;7.20;59.91;98343.94;233778;209;141837;-58
2023/11/13 18:15:49;;;;;;;28.90;9.20;;;;;;;7.15;60.25;98333.31;234206;208;137014;-58
2023/11/13 18:20:55;;;;;;;28.10;9.50;;;;;;;7.12;60.59;98317.96;234134;212;149506;-57
2023/11/13 18:25:59;;;;;;;28.80;9.50;;;;;;;7.07;60.84;98331.48;233787;215;139838;-57
2023/11/13 18:31:04;;;;;;;36.30;10.70;;;;;;;7.01;61.03;98328.51;234223;213;138046;-60
2023/11/13 18:36:07;;;;;;;38.00;10.60;;;;;;;6.96;61.33;98312.40;234238;215;149796;-58
2023/11/13 18:41:12;;;;;;;44.90;10.60;;;;;;;6.94;61.41;98304.21;233514;208;140064;-59
2023/11/13 18:46:15;;;;;;;37.00;10.90;;;;;;;6.93;61.79;98297.07;233684;213;137542;-58
2023/11/13 18:51:18;;;;;;;33.30;11.10;;;;;;;6.88;61.95;98294.18;234185;209;150789;-58
2023/11/13 18:56:22;;;;;;;49.40;11.50;;;;;;;6.84;62.50;98286.13;234145;213;140037;-58
2023/11/13 19:01:26;;;;;;;44.00;12.70;;;;;;;6.83;62.68;98268.02;234159;208;138385;-59
2023/11/13 19:06:29;;;;;;;37.40;12.20;;;;;;;6.86;62.91;98260.42;234131;213;150581;-58
2023/11/13 19:11:32;;;;;;;38.20;15.70;;;;;;;6.89;63.23;98250.77;234283;208;139736;-59
2023/11/13 19:16:36;;;;;;;129.70;76.20;;;;;;;7.06;63.43;98248.66;234225;213;137321;-59
2023/11/13 19:21:39;;;;;;;40.10;19.10;;;;;;;7.23;62.79;98251.89;234188;214;149366;-60
2023/11/13 19:26:43;;;;;;;38.90;19.80;;;;;;;7.32;62.67;98249.70;234156;213;139279;-59
2023/11/13 19:31:46;;;;;;;38.70;20.20;;;;;;;7.40;62.55;98252.44;234212;212;138018;-59
2023/11/13 19:36:51;;;;;;;46.10;19.40;;;;;;;7.52;62.63;98245.52;234185;213;149402;-59
2023/11/13 19:41:56;;;;;;;306.70;222.20;;;;;;;7.63;63.47;98226.04;234222;213;138746;-60
2023/11/13 19:47:00;;;;;;;44.90;23.20;;;;;;;7.86;63.00;98215.27;234292;212;137881;-59
2023/11/13 19:52:04;;;;;;;46.40;21.30;;;;;;;7.88;62.37;98202.24;234242;209;151465;-57
2023/11/13 19:57:07;;;;;;;40.80;20.80;;;;;;;7.92;62.34;98181.31;234035;212;138591;-60
2023/11/13 20:02:11;;;;;;;250.80;165.10;;;;;;;7.93;62.78;98164.13;233825;213;138256;-60
2023/11/13 20:07:15;;;;;;;44.40;23.50;;;;;;;8.09;63.11;98151.27;234260;208;150582;-59
2023/11/13 20:12:18;;;;;;;42.70;21.20;;;;;;;8.11;62.41;98145.63;233953;212;140707;-58
2023/11/13 20:17:23;;;;;;;38.80;21.20;;;;;;;8.02;62.52;98139.88;234139;213;137462;-60
2023/11/13 20:22:27;;;;;;;43.80;20.80;;;;;;;7.94;62.87;98138.45;234222;209;150233;-58
2023/11/13 20:27:30;;;;;;;36.10;19.90;;;;;;;7.88;63.25;98128.80;234215;209;140573;-60
2023/11/13 20:32:33;;;;;;;39.80;20.50;;;;;;;7.82;63.60;98130.02;234212;214;139544;-60
2023/11/13 20:37:37;;;;;;;505.00;376.70;;;;;;;7.81;64.14;98118.45;234197;213;149171;-58
2023/11/13 20:42:40;;;;;;;49.00;28.60;;;;;;;7.96;65.25;98106.22;234270;212;138666;-60
2023/11/13 20:47:44;;;;;;;63.60;38.80;;;;;;;7.94;64.01;98074.69;233814;208;137843;-61
2023/11/13 20:52:48;;;;;;;69.10;40.10;;;;;;;7.95;65.06;98073.42;234324;208;151692;-59
2023/11/13 20:57:53;;;;;;;47.40;23.40;;;;;;;8.07;64.13;98079.85;234245;213;139671;-60
2023/11/13 21:02:56;;;;;;;47.00;25.80;;;;;;;8.04;63.77;98070.13;234253;212;140182;-59
2023/11/13 21:08:00;;;;;;;45.10;26.50;;;;;;;8.02;63.93;98057.34;234195;212;150214;-58
2023/11/13 21:13:04;;;;;;;47.00;26.20;;;;;;;8.00;64.16;98036.33;234129;208;141914;-60
2023/11/13 21:18:07;;;;;;;55.10;26.60;;;;;;;7.97;64.13;98021.35;234220;213;139667;-59
2023/11/13 21:23:10;;;;;;;49.50;25.70;;;;;;;7.91;64.04;98003.19;234128;209;149783;-56
2023/11/13 21:28:13;;;;;;;49.70;25.80;;;;;;;7.86;64.19;98005.10;234084;214;140714;-56
2023/11/13 21:33:19;;;;;;;40.20;24.30;;;;;;;7.89;64.16;98014.48;234197;209;142184;-57
2023/11/13 21:38:22;;;;;;;;;;;;;;;7.87;64.18;98017.98;234131;209;150797;-56
2023/11/13 21:43:26;;;;;;;41.70;24.30;;;;;;;7.92;64.36;98005.75;234178;209;138523;-56
2023/11/13 21:48:29;;;;;;;48.20;27.00;;;;;;;7.94;64.18;97986.41;234061;213;138217;-56
2023/11/13 21:53:32;;;;;;;49.80;25.70;;;;;;;7.96;64.26;97970.51;234223;215;150129;-56
2023/11/13 21:58:35;;;;;;;43.50;25.60;;;;;;;8.00;64.41;97973.27;234113;209;140111;-55
2023/11/13 22:03:39;;;;;;;43.90;25.20;;;;;;;8.08;64.43;97957.19;234236;213;137057;-55
2023/11/13 22:08:43;;;;;;;46.00;27.20;;;;;;;8.07;63.99;97927.77;234100;210;149663;-55
2023/11/13 22:13:46;;;;;;;42.30;25.80;;;;;;;8.07;64.21;97907.60;234036;214;138803;-55
2023/11/13 22:18:49;;;;;;;51.10;27.20;;;;;;;8.04;64.31;97891.20;234163;216;140522;-56
2023/11/13 22:23:52;;;;;;;44.10;26.00;;;;;;;8.05;64.20;97873.80;234193;210;149789;-56
2023/11/13 22:28:56;;;;;;;49.90;27.70;;;;;;;8.08;64.59;97848.22;234305;214;138800;-57
2023/11/13 22:33:59;;;;;;;44.40;25.30;;;;;;;8.15;64.73;97834.98;234101;215;138222;-56
2023/11/13 22:39:04;;;;;;;42.40;23.40;;;;;;;8.22;64.75;97812.73;234089;213;150599;-56
2023/11/13 22:44:07;;;;;;;39.90;24.40;;;;;;;8.33;64.72;97799.23;234008;217;140800;-57
2023/11/13 22:49:11;;;;;;;41.20;23.90;;;;;;;8.44;64.39;97782.38;234107;215;138412;-56
2023/11/13 22:54:14;;;;;;;39.80;24.20;;;;;;;8.47;64.56;97768.02;233962;215;150344;-56
2023/11/13 22:59:17;;;;;;;40.30;23.10;;;;;;;8.46;64.72;97762.24;234155;214;138821;-57
2023/11/13 23:04:21;;;;;;;42.30;24.00;;;;;;;8.46;64.69;97734.81;234121;211;139134;-56
2023/11/13 23:09:25;;;;;;;39.10;24.60;;;;;;;8.45;64.98;97727.87;234107;214;149238;-56
2023/11/13 23:14:28;;;;;;;41.40;23.00;;;;;;;8.44;65.09;97707.95;233856;214;138941;-54
2023/11/13 23:19:31;;;;;;;40.70;23.90;;;;;;;8.37;65.39;97698.03;234153;214;137192;-57
2023/11/13 23:24:35;;;;;;;36.30;22.50;;;;;;;8.35;65.71;97706.98;234143;214;150052;-55
2023/11/13 23:29:38;;;;;;;37.20;22.80;;;;;;;8.33;65.94;97684.70;234251;216;139143;-57